sensor_id;sensor_type;location;lat;lon;timestamp;pressure;altitude;pressure_sealevel;temperature;humidity
68107;BME280;54892;47.488;19.026;2023-04-23T00:02:07;99781.81;;;12.27;58.40
68107;BME280;54892;47.488;19.026;2023-04-23T00:05:12;99778.91;;;12.24;58.87
68107;BME280;54892;47.488;19.026;2023-04-23T00:08:15;99780.75;;;12.28;58.95
68107;BME280;54892;47.488;19.026;2023-04-23T00:11:21;99780.81;;;12.13;59.12
68107;BME280;54892;47.488;19.026;2023-04-23T00:14:25;99779.53;;;12.05;59.06
68107;BME280;54892;47.488;19.026;2023-04-23T00:17:28;99780.84;;;11.92;58.82
68107;BME280;54892;47.488;19.026;2023-04-23T00:20:31;99772.13;;;12.02;59.08
68107;BME280;54892;47.488;19.026;2023-04-23T00:23:34;99773.94;;;12.01;59.39
68107;BME280;54892;47.488;19.026;2023-04-23T00:26:38;99777.16;;;11.98;60.14
68107;BME280;54892;47.488;19.026;2023-04-23T00:29:41;99769.75;;;11.85;60.32
68107;BME280;54892;47.488;19.026;2023-04-23T00:32:46;99770.03;;;11.78;60.30
68107;BME280;54892;47.488;19.026;2023-04-23T00:35:49;99757.63;;;11.73;60.06
68107;BME280;54892;47.488;19.026;2023-04-23T00:38:53;99767.41;;;11.73;60.43
68107;BME280;54892;47.488;19.026;2023-04-23T00:41:58;99761.88;;;11.64;61.31
68107;BME280;54892;47.488;19.026;2023-04-23T00:45:07;99766.63;;;11.62;61.58
68107;BME280;54892;47.488;19.026;2023-04-23T00:48:10;99762.41;;;11.56;61.66
68107;BME280;54892;47.488;19.026;2023-04-23T00:51:14;99761.34;;;11.57;62.46
68107;BME280;54892;47.488;19.026;2023-04-23T00:54:18;99759.22;;;11.64;61.72
68107;BME280;54892;47.488;19.026;2023-04-23T00:57:22;99761.34;;;11.57;62.10
68107;BME280;54892;47.488;19.026;2023-04-23T01:00:26;99756.87;;;11.52;61.93
68107;BME280;54892;47.488;19.026;2023-04-23T01:03:29;99758.72;;;11.47;62.16
68107;BME280;54892;47.488;19.026;2023-04-23T01:06:33;99756.63;;;11.43;62.33
68107;BME280;54892;47.488;19.026;2023-04-23T01:09:36;99758.19;;;11.45;62.17
68107;BME280;54892;47.488;19.026;2023-04-23T01:12:41;99763.75;;;11.33;62.85
68107;BME280;54892;47.488;19.026;2023-04-23T01:15:44;99751.31;;;11.38;62.85
68107;BME280;54892;47.488;19.026;2023-04-23T01:18:47;99760.84;;;11.29;63.72
68107;BME280;54892;47.488;19.026;2023-04-23T01:21:50;99759.28;;;11.28;63.28
68107;BME280;54892;47.488;19.026;2023-04-23T01:24:55;99759.53;;;11.21;63.01
68107;BME280;54892;47.488;19.026;2023-04-23T01:27:57;99758.50;;;11.12;63.10
68107;BME280;54892;47.488;19.026;2023-04-23T01:31:01;99758.47;;;11.17;63.51
68107;BME280;54892;47.488;19.026;2023-04-23T01:34:04;99756.38;;;11.24;63.87
68107;BME280;54892;47.488;19.026;2023-04-23T01:37:07;99752.41;;;11.27;64.38
68107;BME280;54892;47.488;19.026;2023-04-23T01:40:13;99745.81;;;11.24;63.63
68107;BME280;54892;47.488;19.026;2023-04-23T01:43:16;99745.53;;;11.26;63.27
68107;BME280;54892;47.488;19.026;2023-04-23T01:46:19;99749.22;;;11.25;63.40
68107;BME280;54892;47.488;19.026;2023-04-23T01:49:22;99759.28;;;11.12;64.17
68107;BME280;54892;47.488;19.026;2023-04-23T01:52:25;99749.25;;;11.09;64.09
68107;BME280;54892;47.488;19.026;2023-04-23T01:55:29;99746.59;;;10.99;64.41
68107;BME280;54892;47.488;19.026;2023-04-23T01:58:32;99751.88;;;10.99;64.37
68107;BME280;54892;47.488;19.026;2023-04-23T02:01:42;99736.84;;;10.94;64.91
68107;BME280;54892;47.488;19.026;2023-04-23T02:04:45;99743.94;;;11.09;65.04
68107;BME280;54892;47.488;19.026;2023-04-23T02:07:49;99750.31;;;11.03;64.06
68107;BME280;54892;47.488;19.026;2023-04-23T02:10:54;99747.13;;;10.96;63.83
68107;BME280;54892;47.488;19.026;2023-04-23T02:13:57;99739.22;;;10.86;64.22
68107;BME280;54892;47.488;19.026;2023-04-23T02:17:01;99739.47;;;10.79;64.13
68107;BME280;54892;47.488;19.026;2023-04-23T02:20:04;99737.84;;;10.68;64.80
68107;BME280;54892;47.488;19.026;2023-04-23T02:23:08;99736.00;;;10.63;65.23
68107;BME280;54892;47.488;19.026;2023-04-23T02:26:13;99734.94;;;10.64;65.61
68107;BME280;54892;47.488;19.026;2023-04-23T02:29:17;99728.06;;;10.63;65.69
68107;BME280;54892;47.488;19.026;2023-04-23T02:32:20;99732.03;;;10.60;65.79
68107;BME280;54892;47.488;19.026;2023-04-23T02:35:23;99735.47;;;10.56;66.14
68107;BME280;54892;47.488;19.026;2023-04-23T02:38:26;99728.06;;;10.47;66.67
68107;BME280;54892;47.488;19.026;2023-04-23T02:41:31;99726.19;;;10.43;66.76
68107;BME280;54892;47.488;19.026;2023-04-23T02:44:33;99729.63;;;10.43;66.85
68107;BME280;54892;47.488;19.026;2023-04-23T02:47:36;99732.00;;;10.40;67.45
68107;BME280;54892;47.488;19.026;2023-04-23T02:50:40;99730.97;;;10.46;67.67
68107;BME280;54892;47.488;19.026;2023-04-23T02:53:43;99719.59;;;10.45;67.18
68107;BME280;54892;47.488;19.026;2023-04-23T02:56:47;99723.59;;;10.48;66.99
68107;BME280;54892;47.488;19.026;2023-04-23T02:59:50;99727.19;;;10.36;67.48
68107;BME280;54892;47.488;19.026;2023-04-23T03:02:53;99725.88;;;10.34;68.13
68107;BME280;54892;47.488;19.026;2023-04-23T03:05:56;99729.56;;;10.33;68.18
68107;BME280;54892;47.488;19.026;2023-04-23T03:08:59;99723.75;;;10.31;67.97
68107;BME280;54892;47.488;19.026;2023-04-23T03:12:03;99722.72;;;10.27;67.82
68107;BME280;54892;47.488;19.026;2023-04-23T03:15:06;99719.00;;;10.23;68.33
68107;BME280;54892;47.488;19.026;2023-04-23T03:18:10;99721.06;;;10.15;69.17
68107;BME280;54892;47.488;19.026;2023-04-23T03:21:13;99717.41;;;10.21;68.83
68107;BME280;54892;47.488;19.026;2023-04-23T03:24:16;99717.94;;;10.24;68.54
68107;BME280;54892;47.488;19.026;2023-04-23T03:27:20;99718.19;;;10.17;68.76
68107;BME280;54892;47.488;19.026;2023-04-23T03:30:23;99718.47;;;10.20;68.47
68107;BME280;54892;47.488;19.026;2023-04-23T03:33:26;99712.91;;;10.17;68.63
68107;BME280;54892;47.488;19.026;2023-04-23T03:36:30;99717.91;;;10.13;68.59
68107;BME280;54892;47.488;19.026;2023-04-23T03:39:33;99724.72;;;10.04;68.62
68107;BME280;54892;47.488;19.026;2023-04-23T03:42:37;99722.09;;;10.04;68.88
68107;BME280;54892;47.488;19.026;2023-04-23T03:45:40;99720.53;;;10.08;68.82
68107;BME280;54892;47.488;19.026;2023-04-23T03:48:43;99726.87;;;10.17;68.83
68107;BME280;54892;47.488;19.026;2023-04-23T03:51:46;99722.09;;;10.04;68.58
68107;BME280;54892;47.488;19.026;2023-04-23T03:54:49;99721.31;;;10.03;68.68
68107;BME280;54892;47.488;19.026;2023-04-23T03:57:53;99722.34;;;9.97;68.47
68107;BME280;54892;47.488;19.026;2023-04-23T04:00:56;99730.22;;;9.87;68.62
68107;BME280;54892;47.488;19.026;2023-04-23T04:04:00;99723.81;;;9.78;68.90
68107;BME280;54892;47.488;19.026;2023-04-23T04:07:03;99739.66;;;9.83;68.63
68107;BME280;54892;47.488;19.026;2023-04-23T04:10:08;99738.69;;;9.99;68.27
68107;BME280;54892;47.488;19.026;2023-04-23T04:13:14;99740.28;;;10.05;68.77
68107;BME280;54892;47.488;19.026;2023-04-23T04:16:17;99734.81;;;10.17;68.70
68107;BME280;54892;47.488;19.026;2023-04-23T04:19:20;99742.16;;;10.10;68.90
68107;BME280;54892;47.488;19.026;2023-04-23T04:22:23;99740.28;;;10.00;69.43
68107;BME280;54892;47.488;19.026;2023-04-23T04:25:26;99745.81;;;10.04;69.08
68107;BME280;54892;47.488;19.026;2023-04-23T04:28:31;99747.69;;;10.09;69.30
68107;BME280;54892;47.488;19.026;2023-04-23T04:31:36;99747.19;;;10.12;69.47
68107;BME280;54892;47.488;19.026;2023-04-23T04:34:40;99749.31;;;10.15;68.85
68107;BME280;54892;47.488;19.026;2023-04-23T04:37:43;99756.47;;;10.25;69.01
68107;BME280;54892;47.488;19.026;2023-04-23T04:40:46;99750.13;;;10.20;68.65
68107;BME280;54892;47.488;19.026;2023-04-23T04:43:50;99748.56;;;10.35;68.32
68107;BME280;54892;47.488;19.026;2023-04-23T04:46:53;99757.91;;;10.58;67.66
68107;BME280;54892;47.488;19.026;2023-04-23T04:49:57;99761.91;;;10.87;67.15
68107;BME280;54892;47.488;19.026;2023-04-23T04:53:01;99764.03;;;11.05;67.24
68107;BME280;54892;47.488;19.026;2023-04-23T04:56:04;99757.69;;;11.42;66.38
68107;BME280;54892;47.488;19.026;2023-04-23T04:59:08;99760.81;;;11.65;63.96
68107;BME280;54892;47.488;19.026;2023-04-23T05:02:11;99770.84;;;11.79;64.53
68107;BME280;54892;47.488;19.026;2023-04-23T05:05:14;99767.91;;;11.91;64.17
68107;BME280;54892;47.488;19.026;2023-04-23T05:08:18;99774.94;;;12.26;62.62
68107;BME280;54892;47.488;19.026;2023-04-23T05:11:22;99769.25;;;12.48;61.55
68107;BME280;54892;47.488;19.026;2023-04-23T05:14:26;99769.91;;;12.75;60.78
68107;BME280;54892;47.488;19.026;2023-04-23T05:17:30;99771.56;;;13.00;60.33
68107;BME280;54892;47.488;19.026;2023-04-23T05:20:33;99770.91;;;13.53;58.50
68107;BME280;54892;47.488;19.026;2023-04-23T05:23:36;99763.16;;;14.30;56.73
68107;BME280;54892;47.488;19.026;2023-04-23T05:26:39;99762.72;;;14.61;54.40
68107;BME280;54892;47.488;19.026;2023-04-23T05:29:43;99769.91;;;14.41;54.04
68107;BME280;54892;47.488;19.026;2023-04-23T05:32:46;99765.41;;;14.18;54.59
68107;BME280;54892;47.488;19.026;2023-04-23T05:35:49;99774.34;;;14.27;55.28
68107;BME280;54892;47.488;19.026;2023-04-23T05:38:52;99773.22;;;14.52;52.91
68107;BME280;54892;47.488;19.026;2023-04-23T05:41:55;99766.38;;;14.65;50.26
68107;BME280;54892;47.488;19.026;2023-04-23T05:44:59;99768.19;;;14.89;48.65
68107;BME280;54892;47.488;19.026;2023-04-23T05:48:02;99772.31;;;15.14;47.65
68107;BME280;54892;47.488;19.026;2023-04-23T05:51:05;99774.47;;;15.45;46.46
68107;BME280;54892;47.488;19.026;2023-04-23T05:54:09;99776.34;;;15.59;46.17
68107;BME280;54892;47.488;19.026;2023-04-23T05:57:12;99771.09;;;15.40;47.21
68107;BME280;54892;47.488;19.026;2023-04-23T06:00:17;99787.06;;;15.06;49.56
68107;BME280;54892;47.488;19.026;2023-04-23T06:03:21;99783.22;;;15.13;50.03
68107;BME280;54892;47.488;19.026;2023-04-23T06:06:24;99778.84;;;15.36;45.73
68107;BME280;54892;47.488;19.026;2023-04-23T06:09:28;99777.22;;;15.54;45.02
68107;BME280;54892;47.488;19.026;2023-04-23T06:12:32;99771.38;;;15.24;44.20
68107;BME280;54892;47.488;19.026;2023-04-23T06:15:36;99781.91;;;15.29;46.72
68107;BME280;54892;47.488;19.026;2023-04-23T06:18:39;99774.84;;;15.38;45.56
68107;BME280;54892;47.488;19.026;2023-04-23T06:21:42;99789.56;;;15.78;44.79
68107;BME280;54892;47.488;19.026;2023-04-23T06:24:45;99778.84;;;16.11;45.76
68107;BME280;54892;47.488;19.026;2023-04-23T06:27:48;99788.81;;;16.05;43.75
68107;BME280;54892;47.488;19.026;2023-04-23T06:30:52;99786.13;;;15.91;46.66
68107;BME280;54892;47.488;19.026;2023-04-23T06:33:55;99786.72;;;15.74;46.06
68107;BME280;54892;47.488;19.026;2023-04-23T06:36:58;99791.22;;;15.74;46.49
68107;BME280;54892;47.488;19.026;2023-04-23T06:40:02;99793.81;;;15.79;45.30
68107;BME280;54892;47.488;19.026;2023-04-23T06:43:05;99794.59;;;15.79;44.74
68107;BME280;54892;47.488;19.026;2023-04-23T06:46:09;99790.88;;;15.94;43.83
68107;BME280;54892;47.488;19.026;2023-04-23T06:49:12;99798.53;;;15.82;44.47
68107;BME280;54892;47.488;19.026;2023-04-23T06:52:16;99788.09;;;15.72;45.15
68107;BME280;54892;47.488;19.026;2023-04-23T06:55:19;99794.94;;;15.92;45.44
68107;BME280;54892;47.488;19.026;2023-04-23T06:58:22;99793.94;;;16.02;45.71
68107;BME280;54892;47.488;19.026;2023-04-23T07:01:33;99798.47;;;15.87;43.74
68107;BME280;54892;47.488;19.026;2023-04-23T07:04:36;99795.13;;;16.09;44.35
68107;BME280;54892;47.488;19.026;2023-04-23T07:07:39;99789.34;;;16.44;43.79
68107;BME280;54892;47.488;19.026;2023-04-23T07:10:43;99790.22;;;17.13;42.94
68107;BME280;54892;47.488;19.026;2023-04-23T07:13:46;99787.25;;;18.18;39.64
68107;BME280;54892;47.488;19.026;2023-04-23T07:16:51;99786.88;;;19.90;36.29
68107;BME280;54892;47.488;19.026;2023-04-23T07:19:55;99795.63;;;21.72;33.60
68107;BME280;54892;47.488;19.026;2023-04-23T07:22:58;99797.19;;;23.21;29.36
68107;BME280;54892;47.488;19.026;2023-04-23T07:26:01;99787.53;;;24.00;27.77
68107;BME280;54892;47.488;19.026;2023-04-23T07:29:04;99793.31;;;24.18;27.77
68107;BME280;54892;47.488;19.026;2023-04-23T07:32:09;99790.31;;;24.78;25.93
68107;BME280;54892;47.488;19.026;2023-04-23T07:35:12;99792.12;;;24.55;26.45
68107;BME280;54892;47.488;19.026;2023-04-23T07:38:15;99790.00;;;25.73;25.29
68107;BME280;54892;47.488;19.026;2023-04-23T07:41:18;99787.97;;;25.20;25.16
68107;BME280;54892;47.488;19.026;2023-04-23T07:44:21;99782.81;;;26.11;24.81
68107;BME280;54892;47.488;19.026;2023-04-23T07:47:25;99787.28;;;26.61;23.61
68107;BME280;54892;47.488;19.026;2023-04-23T07:50:28;99787.16;;;26.50;24.62
68107;BME280;54892;47.488;19.026;2023-04-23T07:53:31;99792.00;;;26.68;23.92
68107;BME280;54892;47.488;19.026;2023-04-23T07:56:34;99788.31;;;26.49;23.92
68107;BME280;54892;47.488;19.026;2023-04-23T07:59:37;99790.75;;;26.58;23.53
68107;BME280;54892;47.488;19.026;2023-04-23T08:02:42;99791.69;;;26.39;24.13
68107;BME280;54892;47.488;19.026;2023-04-23T08:05:45;99790.59;;;26.13;23.38
68107;BME280;54892;47.488;19.026;2023-04-23T08:08:48;99787.00;;;25.55;24.49
68107;BME280;54892;47.488;19.026;2023-04-23T08:11:51;99781.53;;;24.26;26.27
68107;BME280;54892;47.488;19.026;2023-04-23T08:14:55;99786.75;;;23.51;26.47
68107;BME280;54892;47.488;19.026;2023-04-23T08:18:00;99778.03;;;23.10;27.28
68107;BME280;54892;47.488;19.026;2023-04-23T08:21:03;99779.44;;;22.34;27.50
68107;BME280;54892;47.488;19.026;2023-04-23T08:24:06;99772.97;;;22.23;29.26
68107;BME280;54892;47.488;19.026;2023-04-23T08:27:09;99769.06;;;21.96;28.73
68107;BME280;54892;47.488;19.026;2023-04-23T08:30:12;99774.59;;;21.62;29.00
68107;BME280;54892;47.488;19.026;2023-04-23T08:33:16;99775.44;;;21.54;30.48
68107;BME280;54892;47.488;19.026;2023-04-23T08:36:19;99770.13;;;21.20;30.39
68107;BME280;54892;47.488;19.026;2023-04-23T08:39:22;99763.31;;;21.23;30.09
68107;BME280;54892;47.488;19.026;2023-04-23T08:42:26;99766.00;;;21.23;29.71
68107;BME280;54892;47.488;19.026;2023-04-23T08:45:32;99769.41;;;21.11;30.44
68107;BME280;54892;47.488;19.026;2023-04-23T08:48:44;99765.16;;;20.97;29.61
68107;BME280;54892;47.488;19.026;2023-04-23T08:51:48;99764.75;;;20.87;31.46
68107;BME280;54892;47.488;19.026;2023-04-23T08:54:52;99760.78;;;20.93;31.26
68107;BME280;54892;47.488;19.026;2023-04-23T08:57:56;99760.19;;;20.87;30.28
68107;BME280;54892;47.488;19.026;2023-04-23T09:01:00;99750.56;;;20.31;30.50
68107;BME280;54892;47.488;19.026;2023-04-23T09:04:04;99751.72;;;20.43;30.88
68107;BME280;54892;47.488;19.026;2023-04-23T09:07:08;99755.50;;;20.20;30.56
68107;BME280;54892;47.488;19.026;2023-04-23T09:10:12;99750.03;;;20.38;30.67
68107;BME280;54892;47.488;19.026;2023-04-23T09:13:16;99747.59;;;20.45;31.18
68107;BME280;54892;47.488;19.026;2023-04-23T09:16:20;99743.19;;;20.62;32.01
68107;BME280;54892;47.488;19.026;2023-04-23T09:19:24;99732.84;;;20.73;32.37
68107;BME280;54892;47.488;19.026;2023-04-23T09:22:37;99735.06;;;20.92;31.36
68107;BME280;54892;47.488;19.026;2023-04-23T09:25:40;99736.50;;;20.89;30.73
68107;BME280;54892;47.488;19.026;2023-04-23T09:28:43;99732.84;;;21.06;31.07
68107;BME280;54892;47.488;19.026;2023-04-23T09:31:47;99734.13;;;20.75;30.55
68107;BME280;54892;47.488;19.026;2023-04-23T09:34:51;99730.25;;;20.85;30.76
68107;BME280;54892;47.488;19.026;2023-04-23T09:37:58;99737.28;;;20.90;30.52
68107;BME280;54892;47.488;19.026;2023-04-23T09:41:18;99729.50;;;21.09;30.50
68107;BME280;54892;47.488;19.026;2023-04-23T09:44:22;99729.50;;;21.09;29.28
68107;BME280;54892;47.488;19.026;2023-04-23T09:47:26;99733.59;;;20.94;29.41
68107;BME280;54892;47.488;19.026;2023-04-23T09:50:34;99727.13;;;20.95;31.22
68107;BME280;54892;47.488;19.026;2023-04-23T09:53:39;99727.34;;;20.90;30.20
68107;BME280;54892;47.488;19.026;2023-04-23T09:56:43;99730.88;;;21.16;29.43
68107;BME280;54892;47.488;19.026;2023-04-23T09:59:46;99726.50;;;21.11;29.40
68107;BME280;54892;47.488;19.026;2023-04-23T10:02:51;99724.16;;;21.22;28.97
68107;BME280;54892;47.488;19.026;2023-04-23T10:05:55;99717.69;;;21.23;28.35
68107;BME280;54892;47.488;19.026;2023-04-23T10:09:01;99705.81;;;21.36;28.75
68107;BME280;54892;47.488;19.026;2023-04-23T10:12:04;99707.28;;;21.34;27.89
68107;BME280;54892;47.488;19.026;2023-04-23T10:15:10;99697.78;;;21.36;27.89
68107;BME280;54892;47.488;19.026;2023-04-23T10:18:13;99693.75;;;21.42;25.36
68107;BME280;54892;47.488;19.026;2023-04-23T10:21:18;99698.00;;;21.56;27.70
68107;BME280;54892;47.488;19.026;2023-04-23T10:24:22;99690.41;;;21.58;27.68
68107;BME280;54892;47.488;19.026;2023-04-23T10:27:26;99683.16;;;21.71;27.88
68107;BME280;54892;47.488;19.026;2023-04-23T10:30:40;99683.13;;;21.58;27.29
68107;BME280;54892;47.488;19.026;2023-04-23T10:33:44;99678.78;;;21.66;25.98
68107;BME280;54892;47.488;19.026;2023-04-23T10:36:58;99687.94;;;21.65;26.61
68107;BME280;54892;47.488;19.026;2023-04-23T10:40:03;99681.13;;;21.55;26.62
68107;BME280;54892;47.488;19.026;2023-04-23T10:43:09;99682.25;;;21.67;25.91
68107;BME280;54892;47.488;19.026;2023-04-23T10:46:26;99677.34;;;21.69;25.96
68107;BME280;54892;47.488;19.026;2023-04-23T10:49:30;99677.44;;;21.72;25.91
68107;BME280;54892;47.488;19.026;2023-04-23T10:52:34;99667.13;;;21.74;25.80
68107;BME280;54892;47.488;19.026;2023-04-23T10:55:37;99666.03;;;21.63;23.78
68107;BME280;54892;47.488;19.026;2023-04-23T10:58:46;99648.34;;;21.62;24.84
68107;BME280;54892;47.488;19.026;2023-04-23T11:01:49;99654.72;;;21.70;24.34
68107;BME280;54892;47.488;19.026;2023-04-23T11:04:53;99656.38;;;21.74;24.09
68107;BME280;54892;47.488;19.026;2023-04-23T11:08:05;99669.47;;;21.76;25.53
68107;BME280;54892;47.488;19.026;2023-04-23T11:11:15;99658.94;;;21.83;25.24
68107;BME280;54892;47.488;19.026;2023-04-23T11:14:18;99657.69;;;21.93;26.14
68107;BME280;54892;47.488;19.026;2023-04-23T11:17:21;99656.84;;;22.05;25.42
68107;BME280;54892;47.488;19.026;2023-04-23T11:20:25;99653.62;;;21.99;25.54
68107;BME280;54892;47.488;19.026;2023-04-23T11:23:32;99644.72;;;21.95;24.86
68107;BME280;54892;47.488;19.026;2023-04-23T11:26:35;99646.81;;;22.02;25.76
68107;BME280;54892;47.488;19.026;2023-04-23T11:29:38;99646.25;;;21.96;24.85
68107;BME280;54892;47.488;19.026;2023-04-23T11:32:43;99654.00;;;22.26;25.36
68107;BME280;54892;47.488;19.026;2023-04-23T11:35:46;99643.19;;;22.10;25.38
68107;BME280;54892;47.488;19.026;2023-04-23T11:38:50;99642.34;;;21.94;24.25
68107;BME280;54892;47.488;19.026;2023-04-23T11:41:58;99634.81;;;21.99;25.03
68107;BME280;54892;47.488;19.026;2023-04-23T11:45:04;99639.97;;;22.04;26.80
68107;BME280;54892;47.488;19.026;2023-04-23T11:48:08;99638.59;;;22.11;25.52
68107;BME280;54892;47.488;19.026;2023-04-23T11:51:11;99632.72;;;22.21;25.31
68107;BME280;54892;47.488;19.026;2023-04-23T11:54:15;99629.38;;;22.24;24.54
68107;BME280;54892;47.488;19.026;2023-04-23T11:57:18;99619.47;;;22.28;25.13
68107;BME280;54892;47.488;19.026;2023-04-23T12:00:23;99628.66;;;22.27;25.81
68107;BME280;54892;47.488;19.026;2023-04-23T12:03:27;99622.34;;;22.35;25.59
68107;BME280;54892;47.488;19.026;2023-04-23T12:06:31;99617.88;;;22.40;25.25
68107;BME280;54892;47.488;19.026;2023-04-23T12:09:35;99619.19;;;22.46;25.28
68107;BME280;54892;47.488;19.026;2023-04-23T12:12:38;99611.41;;;22.28;23.54
68107;BME280;54892;47.488;19.026;2023-04-23T12:15:47;99602.38;;;22.49;24.39
68107;BME280;54892;47.488;19.026;2023-04-23T12:18:52;99607.22;;;22.15;24.96
68107;BME280;54892;47.488;19.026;2023-04-23T12:21:56;99606.19;;;22.19;26.25
68107;BME280;54892;47.488;19.026;2023-04-23T12:25:03;99607.16;;;22.27;26.61
68107;BME280;54892;47.488;19.026;2023-04-23T12:28:08;99585.59;;;22.40;25.66
68107;BME280;54892;47.488;19.026;2023-04-23T12:31:17;99597.00;;;22.49;25.96
68107;BME280;54892;47.488;19.026;2023-04-23T12:34:20;99594.06;;;22.54;25.71
68107;BME280;54892;47.488;19.026;2023-04-23T12:37:23;99588.00;;;22.57;26.54
68107;BME280;54892;47.488;19.026;2023-04-23T12:40:28;99581.22;;;22.63;26.68
68107;BME280;54892;47.488;19.026;2023-04-23T12:43:32;99583.22;;;22.66;26.46
68107;BME280;54892;47.488;19.026;2023-04-23T12:46:34;99581.56;;;22.78;25.66
68107;BME280;54892;47.488;19.026;2023-04-23T12:49:38;99577.19;;;22.89;25.72
68107;BME280;54892;47.488;19.026;2023-04-23T12:52:41;99568.00;;;22.90;26.78
68107;BME280;54892;47.488;19.026;2023-04-23T12:55:45;99564.63;;;22.93;26.18
68107;BME280;54892;47.488;19.026;2023-04-23T12:58:48;99574.25;;;22.94;26.20
68107;BME280;54892;47.488;19.026;2023-04-23T13:01:51;99565.91;;;23.00;26.49
68107;BME280;54892;47.488;19.026;2023-04-23T13:04:54;99569.19;;;23.09;25.56
68107;BME280;54892;47.488;19.026;2023-04-23T13:08:01;99564.34;;;22.99;24.89
68107;BME280;54892;47.488;19.026;2023-04-23T13:11:05;99550.91;;;22.99;25.95
68107;BME280;54892;47.488;19.026;2023-04-23T13:14:08;99542.66;;;22.91;25.21
68107;BME280;54892;47.488;19.026;2023-04-23T13:17:11;99547.22;;;22.55;25.35
68107;BME280;54892;47.488;19.026;2023-04-23T13:20:15;99546.03;;;22.24;25.50
68107;BME280;54892;47.488;19.026;2023-04-23T13:23:17;99540.91;;;21.90;25.78
68107;BME280;54892;47.488;19.026;2023-04-23T13:26:21;99537.91;;;21.64;25.83
68107;BME280;54892;47.488;19.026;2023-04-23T13:29:25;99535.06;;;21.72;26.15
68107;BME280;54892;47.488;19.026;2023-04-23T13:32:28;99526.03;;;21.65;27.41
68107;BME280;54892;47.488;19.026;2023-04-23T13:35:32;99519.16;;;21.39;26.50
68107;BME280;54892;47.488;19.026;2023-04-23T13:38:38;99519.03;;;21.35;27.21
68107;BME280;54892;47.488;19.026;2023-04-23T13:41:42;99510.59;;;21.62;26.64
68107;BME280;54892;47.488;19.026;2023-04-23T13:44:47;99511.53;;;21.82;26.54
68107;BME280;54892;47.488;19.026;2023-04-23T13:47:52;99511.78;;;21.77;25.36
68107;BME280;54892;47.488;19.026;2023-04-23T13:50:55;99502.53;;;21.90;26.14
68107;BME280;54892;47.488;19.026;2023-04-23T13:53:58;99495.97;;;22.03;25.76
68107;BME280;54892;47.488;19.026;2023-04-23T13:57:03;99508.09;;;21.97;26.29
68107;BME280;54892;47.488;19.026;2023-04-23T14:00:07;99494.16;;;21.63;26.13
68107;BME280;54892;47.488;19.026;2023-04-23T14:03:10;99490.78;;;21.54;26.16
68107;BME280;54892;47.488;19.026;2023-04-23T14:06:13;99492.53;;;21.34;26.65
68107;BME280;54892;47.488;19.026;2023-04-23T14:09:16;99489.31;;;21.28;26.14
68107;BME280;54892;47.488;19.026;2023-04-23T14:12:20;99489.44;;;21.19;26.48
68107;BME280;54892;47.488;19.026;2023-04-23T14:15:24;99483.84;;;21.24;27.41
68107;BME280;54892;47.488;19.026;2023-04-23T14:18:28;99478.19;;;21.13;27.65
68107;BME280;54892;47.488;19.026;2023-04-23T14:21:30;99488.53;;;21.27;27.61
68107;BME280;54892;47.488;19.026;2023-04-23T14:24:37;99477.31;;;21.38;27.28
68107;BME280;54892;47.488;19.026;2023-04-23T14:27:45;99478.09;;;21.38;26.84
68107;BME280;54892;47.488;19.026;2023-04-23T14:30:49;99476.09;;;21.35;26.93
68107;BME280;54892;47.488;19.026;2023-04-23T14:33:56;99474.38;;;21.43;27.13
68107;BME280;54892;47.488;19.026;2023-04-23T14:37:00;99469.38;;;21.41;26.45
68107;BME280;54892;47.488;19.026;2023-04-23T14:40:03;99462.44;;;21.40;26.79
68107;BME280;54892;47.488;19.026;2023-04-23T14:43:08;99466.72;;;21.29;27.44
68107;BME280;54892;47.488;19.026;2023-04-23T14:46:15;99461.09;;;21.34;28.46
68107;BME280;54892;47.488;19.026;2023-04-23T14:49:18;99457.06;;;21.40;27.75
68107;BME280;54892;47.488;19.026;2023-04-23T14:52:22;99455.50;;;21.39;27.03
68107;BME280;54892;47.488;19.026;2023-04-23T14:55:28;99453.94;;;21.38;27.94
68107;BME280;54892;47.488;19.026;2023-04-23T14:58:32;99453.44;;;21.61;26.98
68107;BME280;54892;47.488;19.026;2023-04-23T15:01:36;99456.56;;;21.63;26.69
68107;BME280;54892;47.488;19.026;2023-04-23T15:04:39;99450.28;;;21.59;26.64
68107;BME280;54892;47.488;19.026;2023-04-23T15:07:43;99452.13;;;21.42;26.85
68107;BME280;54892;47.488;19.026;2023-04-23T15:10:48;99446.78;;;21.42;27.05
68107;BME280;54892;47.488;19.026;2023-04-23T15:13:55;99450.22;;;21.43;25.98
68107;BME280;54892;47.488;19.026;2023-04-23T15:17:04;99439.06;;;21.41;25.99
68107;BME280;54892;47.488;19.026;2023-04-23T15:20:07;99445.44;;;21.36;26.22
68107;BME280;54892;47.488;19.026;2023-04-23T15:23:11;99446.47;;;21.32;26.74
68107;BME280;54892;47.488;19.026;2023-04-23T15:26:15;99447.66;;;21.47;26.57
68107;BME280;54892;47.488;19.026;2023-04-23T15:29:19;99442.22;;;21.30;26.15
68107;BME280;54892;47.488;19.026;2023-04-23T15:32:24;99444.31;;;21.37;26.77
68107;BME280;54892;47.488;19.026;2023-04-23T15:35:28;99438.84;;;21.34;26.78
68107;BME280;54892;47.488;19.026;2023-04-23T15:38:31;99431.16;;;21.32;27.05
68107;BME280;54892;47.488;19.026;2023-04-23T15:41:34;99431.47;;;21.30;27.29
68107;BME280;54892;47.488;19.026;2023-04-23T15:44:41;99428.03;;;21.30;26.86
68107;BME280;54892;47.488;19.026;2023-04-23T15:47:47;99427.78;;;21.35;26.58
68107;BME280;54892;47.488;19.026;2023-04-23T15:50:52;99429.44;;;21.40;26.70
68107;BME280;54892;47.488;19.026;2023-04-23T15:53:55;99425.44;;;21.34;26.49
68107;BME280;54892;47.488;19.026;2023-04-23T15:56:59;99426.59;;;21.20;26.88
68107;BME280;54892;47.488;19.026;2023-04-23T16:00:05;99417.03;;;21.07;27.14
68107;BME280;54892;47.488;19.026;2023-04-23T16:03:09;99422.97;;;21.00;27.23